sensor_id;sensor_type;location;lat;lon;timestamp;P1;durP1;ratioP1;P2;durP2;ratioP2
41255;SDS011;26989;45.524;10.938;2024-01-11T00:01:47;23.13;;;10.48;;
41255;SDS011;26989;45.524;10.938;2024-01-11T00:04:15;25.27;;;11.32;;
41255;SDS011;26989;45.524;10.938;2024-01-11T00:06:45;24.75;;;11.80;;
41255;SDS011;26989;45.524;10.938;2024-01-11T00:09:21;26.23;;;11.88;;
41255;SDS011;26989;45.524;10.938;2024-01-11T00:11:47;27.63;;;11.70;;
41255;SDS011;26989;45.524;10.938;2024-01-11T00:14:15;32.13;;;14.45;;
41255;SDS011;26989;45.524;10.938;2024-01-11T00:16:42;27.17;;;12.23;;
41255;SDS011;26989;45.524;10.938;2024-01-11T00:19:09;26.10;;;13.02;;
41255;SDS011;26989;45.524;10.938;2024-01-11T00:21:36;23.10;;;11.02;;
41255;SDS011;26989;45.524;10.938;2024-01-11T00:24:06;26.40;;;12.55;;
41255;SDS011;26989;45.524;10.938;2024-01-11T00:26:33;34.22;;;14.20;;
41255;SDS011;26989;45.524;10.938;2024-01-11T00:29:00;23.83;;;12.50;;
41255;SDS011;26989;45.524;10.938;2024-01-11T00:31:27;25.17;;;12.38;;
41255;SDS011;26989;45.524;10.938;2024-01-11T00:33:54;27.92;;;11.60;;
41255;SDS011;26989;45.524;10.938;2024-01-11T00:36:21;24.30;;;11.35;;
41255;SDS011;26989;45.524;10.938;2024-01-11T00:38:48;22.35;;;10.80;;
41255;SDS011;26989;45.524;10.938;2024-01-11T00:41:15;25.70;;;12.48;;
41255;SDS011;26989;45.524;10.938;2024-01-11T00:43:43;28.85;;;11.05;;
41255;SDS011;26989;45.524;10.938;2024-01-11T00:46:10;24.40;;;10.30;;
41255;SDS011;26989;45.524;10.938;2024-01-11T00:48:37;27.38;;;11.68;;
41255;SDS011;26989;45.524;10.938;2024-01-11T00:51:07;21.67;;;10.88;;
41255;SDS011;26989;45.524;10.938;2024-01-11T00:53:33;26.83;;;12.73;;
41255;SDS011;26989;45.524;10.938;2024-01-11T00:56:00;22.13;;;9.60;;
41255;SDS011;26989;45.524;10.938;2024-01-11T00:58:28;23.83;;;11.13;;
41255;SDS011;26989;45.524;10.938;2024-01-11T01:00:55;25.20;;;12.70;;
41255;SDS011;26989;45.524;10.938;2024-01-11T01:03:22;30.92;;;13.65;;
41255;SDS011;26989;45.524;10.938;2024-01-11T01:05:49;26.05;;;12.55;;
41255;SDS011;26989;45.524;10.938;2024-01-11T01:08:16;23.15;;;12.10;;
41255;SDS011;26989;45.524;10.938;2024-01-11T01:10:43;25.95;;;11.82;;
41255;SDS011;26989;45.524;10.938;2024-01-11T01:13:10;28.20;;;13.15;;
41255;SDS011;26989;45.524;10.938;2024-01-11T01:15:37;27.85;;;14.55;;
41255;SDS011;26989;45.524;10.938;2024-01-11T01:18:04;27.02;;;12.65;;
41255;SDS011;26989;45.524;10.938;2024-01-11T01:20:31;28.23;;;11.63;;
41255;SDS011;26989;45.524;10.938;2024-01-11T01:22:58;26.23;;;12.68;;
41255;SDS011;26989;45.524;10.938;2024-01-11T01:25:25;27.70;;;13.75;;
41255;SDS011;26989;45.524;10.938;2024-01-11T01:27:53;22.67;;;10.60;;
41255;SDS011;26989;45.524;10.938;2024-01-11T01:30:19;29.25;;;13.20;;
41255;SDS011;26989;45.524;10.938;2024-01-11T01:32:47;33.25;;;13.10;;
41255;SDS011;26989;45.524;10.938;2024-01-11T01:35:14;29.33;;;12.02;;
41255;SDS011;26989;45.524;10.938;2024-01-11T01:37:41;23.95;;;11.00;;
41255;SDS011;26989;45.524;10.938;2024-01-11T01:40:09;25.90;;;12.82;;
41255;SDS011;26989;45.524;10.938;2024-01-11T01:42:36;31.90;;;12.20;;
41255;SDS011;26989;45.524;10.938;2024-01-11T01:45:10;27.65;;;12.05;;
41255;SDS011;26989;45.524;10.938;2024-01-11T01:47:38;35.75;;;14.98;;
41255;SDS011;26989;45.524;10.938;2024-01-11T01:50:07;28.23;;;12.93;;
41255;SDS011;26989;45.524;10.938;2024-01-11T01:52:37;25.70;;;12.32;;
41255;SDS011;26989;45.524;10.938;2024-01-11T01:55:06;30.10;;;13.00;;
41255;SDS011;26989;45.524;10.938;2024-01-11T01:57:35;22.75;;;11.13;;
41255;SDS011;26989;45.524;10.938;2024-01-11T02:00:04;23.13;;;10.95;;
41255;SDS011;26989;45.524;10.938;2024-01-11T02:02:31;23.98;;;11.57;;
41255;SDS011;26989;45.524;10.938;2024-01-11T02:05:01;28.05;;;12.88;;
41255;SDS011;26989;45.524;10.938;2024-01-11T02:07:28;25.77;;;10.32;;
41255;SDS011;26989;45.524;10.938;2024-01-11T02:09:55;29.63;;;14.05;;
41255;SDS011;26989;45.524;10.938;2024-01-11T02:12:23;23.70;;;11.07;;
41255;SDS011;26989;45.524;10.938;2024-01-11T02:14:52;30.13;;;12.27;;
41255;SDS011;26989;45.524;10.938;2024-01-11T02:17:19;24.65;;;10.88;;
41255;SDS011;26989;45.524;10.938;2024-01-11T02:19:47;25.77;;;12.23;;
41255;SDS011;26989;45.524;10.938;2024-01-11T02:22:36;24.13;;;12.18;;
41255;SDS011;26989;45.524;10.938;2024-01-11T02:25:02;33.30;;;14.43;;
41255;SDS011;26989;45.524;10.938;2024-01-11T02:27:30;28.90;;;12.95;;
41255;SDS011;26989;45.524;10.938;2024-01-11T02:29:56;30.80;;;13.68;;
41255;SDS011;26989;45.524;10.938;2024-01-11T02:32:23;30.40;;;13.82;;
41255;SDS011;26989;45.524;10.938;2024-01-11T02:34:50;28.83;;;13.98;;
41255;SDS011;26989;45.524;10.938;2024-01-11T02:37:17;31.52;;;14.68;;
41255;SDS011;26989;45.524;10.938;2024-01-11T02:39:45;29.98;;;13.85;;
41255;SDS011;26989;45.524;10.938;2024-01-11T02:42:12;29.83;;;13.98;;
41255;SDS011;26989;45.524;10.938;2024-01-11T02:44:39;31.00;;;12.93;;
41255;SDS011;26989;45.524;10.938;2024-01-11T02:47:06;33.92;;;13.20;;
41255;SDS011;26989;45.524;10.938;2024-01-11T02:49:33;30.52;;;14.52;;
41255;SDS011;26989;45.524;10.938;2024-01-11T02:52:02;31.25;;;14.82;;
41255;SDS011;26989;45.524;10.938;2024-01-11T02:54:30;32.47;;;14.82;;
41255;SDS011;26989;45.524;10.938;2024-01-11T02:56:56;29.27;;;14.52;;
41255;SDS011;26989;45.524;10.938;2024-01-11T02:59:24;29.88;;;14.63;;
41255;SDS011;26989;45.524;10.938;2024-01-11T03:01:50;30.88;;;14.57;;
41255;SDS011;26989;45.524;10.938;2024-01-11T03:04:17;32.67;;;13.77;;
41255;SDS011;26989;45.524;10.938;2024-01-11T03:06:44;30.60;;;13.90;;
41255;SDS011;26989;45.524;10.938;2024-01-11T03:09:11;28.10;;;13.90;;
41255;SDS011;26989;45.524;10.938;2024-01-11T03:11:38;30.73;;;14.13;;
41255;SDS011;26989;45.524;10.938;2024-01-11T03:14:05;30.10;;;13.23;;
41255;SDS011;26989;45.524;10.938;2024-01-11T03:16:32;25.27;;;12.55;;
41255;SDS011;26989;45.524;10.938;2024-01-11T03:18:59;29.17;;;14.00;;
41255;SDS011;26989;45.524;10.938;2024-01-11T03:21:27;30.83;;;14.57;;
41255;SDS011;26989;45.524;10.938;2024-01-11T03:23:54;30.55;;;14.15;;
41255;SDS011;26989;45.524;10.938;2024-01-11T03:26:21;26.17;;;12.13;;
41255;SDS011;26989;45.524;10.938;2024-01-11T03:28:48;22.27;;;11.23;;
41255;SDS011;26989;45.524;10.938;2024-01-11T03:31:15;24.30;;;11.32;;
41255;SDS011;26989;45.524;10.938;2024-01-11T03:33:42;19.85;;;9.60;;
41255;SDS011;26989;45.524;10.938;2024-01-11T03:36:10;19.65;;;8.82;;
41255;SDS011;26989;45.524;10.938;2024-01-11T03:38:37;20.63;;;9.80;;
41255;SDS011;26989;45.524;10.938;2024-01-11T03:41:08;20.83;;;10.10;;
41255;SDS011;26989;45.524;10.938;2024-01-11T03:43:36;21.85;;;10.00;;
41255;SDS011;26989;45.524;10.938;2024-01-11T03:46:03;19.25;;;9.57;;
41255;SDS011;26989;45.524;10.938;2024-01-11T03:48:30;23.80;;;9.65;;
41255;SDS011;26989;45.524;10.938;2024-01-11T03:50:58;18.83;;;9.25;;
41255;SDS011;26989;45.524;10.938;2024-01-11T03:53:25;19.08;;;9.02;;
41255;SDS011;26989;45.524;10.938;2024-01-11T03:55:52;25.75;;;10.82;;
41255;SDS011;26989;45.524;10.938;2024-01-11T03:58:18;20.48;;;9.32;;
41255;SDS011;26989;45.524;10.938;2024-01-11T04:00:45;18.67;;;8.63;;
41255;SDS011;26989;45.524;10.938;2024-01-11T04:03:12;20.45;;;9.40;;
41255;SDS011;26989;45.524;10.938;2024-01-11T04:05:39;20.92;;;8.60;;
41255;SDS011;26989;45.524;10.938;2024-01-11T04:08:07;19.45;;;9.50;;
41255;SDS011;26989;45.524;10.938;2024-01-11T04:10:34;21.63;;;8.45;;
41255;SDS011;26989;45.524;10.938;2024-01-11T04:13:01;15.45;;;8.55;;
41255;SDS011;26989;45.524;10.938;2024-01-11T04:15:28;21.20;;;8.30;;
41255;SDS011;26989;45.524;10.938;2024-01-11T04:17:55;18.50;;;7.32;;
41255;SDS011;26989;45.524;10.938;2024-01-11T04:20:22;17.98;;;8.18;;
41255;SDS011;26989;45.524;10.938;2024-01-11T04:22:50;17.20;;;8.07;;
41255;SDS011;26989;45.524;10.938;2024-01-11T04:25:17;16.88;;;8.02;;
41255;SDS011;26989;45.524;10.938;2024-01-11T04:27:44;18.83;;;7.72;;
41255;SDS011;26989;45.524;10.938;2024-01-11T04:30:11;15.80;;;7.00;;
41255;SDS011;26989;45.524;10.938;2024-01-11T04:32:38;18.60;;;7.60;;
41255;SDS011;26989;45.524;10.938;2024-01-11T04:35:05;18.52;;;8.63;;
41255;SDS011;26989;45.524;10.938;2024-01-11T04:37:32;18.88;;;8.68;;
41255;SDS011;26989;45.524;10.938;2024-01-11T04:40:01;17.92;;;7.60;;
41255;SDS011;26989;45.524;10.938;2024-01-11T04:42:30;17.70;;;7.75;;
41255;SDS011;26989;45.524;10.938;2024-01-11T04:44:56;16.42;;;7.32;;
41255;SDS011;26989;45.524;10.938;2024-01-11T04:47:23;20.58;;;9.00;;
41255;SDS011;26989;45.524;10.938;2024-01-11T04:49:50;18.73;;;8.63;;
41255;SDS011;26989;45.524;10.938;2024-01-11T04:52:17;16.55;;;7.80;;
41255;SDS011;26989;45.524;10.938;2024-01-11T04:54:44;19.13;;;8.25;;
41255;SDS011;26989;45.524;10.938;2024-01-11T04:57:11;16.42;;;6.70;;
41255;SDS011;26989;45.524;10.938;2024-01-11T04:59:38;17.88;;;7.80;;
41255;SDS011;26989;45.524;10.938;2024-01-11T05:02:04;16.73;;;8.45;;
41255;SDS011;26989;45.524;10.938;2024-01-11T05:04:32;18.33;;;8.70;;
41255;SDS011;26989;45.524;10.938;2024-01-11T05:06:58;19.75;;;9.10;;
41255;SDS011;26989;45.524;10.938;2024-01-11T05:09:25;16.70;;;8.07;;
41255;SDS011;26989;45.524;10.938;2024-01-11T05:11:52;18.00;;;7.88;;
41255;SDS011;26989;45.524;10.938;2024-01-11T05:14:19;16.27;;;7.30;;
41255;SDS011;26989;45.524;10.938;2024-01-11T05:16:46;15.07;;;7.38;;
41255;SDS011;26989;45.524;10.938;2024-01-11T05:19:13;17.08;;;7.43;;
41255;SDS011;26989;45.524;10.938;2024-01-11T05:21:40;20.58;;;9.40;;
41255;SDS011;26989;45.524;10.938;2024-01-11T05:24:07;16.05;;;8.82;;
41255;SDS011;26989;45.524;10.938;2024-01-11T05:26:37;17.35;;;8.05;;
41255;SDS011;26989;45.524;10.938;2024-01-11T05:29:04;15.68;;;7.57;;
41255;SDS011;26989;45.524;10.938;2024-01-11T05:31:31;17.27;;;7.15;;
41255;SDS011;26989;45.524;10.938;2024-01-11T05:33:58;19.85;;;8.65;;
41255;SDS011;26989;45.524;10.938;2024-01-11T05:36:25;20.17;;;9.95;;
41255;SDS011;26989;45.524;10.938;2024-01-11T05:38:52;14.90;;;7.82;;
41255;SDS011;26989;45.524;10.938;2024-01-11T05:41:19;21.15;;;9.73;;
41255;SDS011;26989;45.524;10.938;2024-01-11T05:43:46;23.50;;;8.98;;
41255;SDS011;26989;45.524;10.938;2024-01-11T05:46:13;20.90;;;9.15;;
41255;SDS011;26989;45.524;10.938;2024-01-11T05:48:40;18.65;;;8.30;;
41255;SDS011;26989;45.524;10.938;2024-01-11T05:51:08;17.20;;;7.90;;
41255;SDS011;26989;45.524;10.938;2024-01-11T05:53:36;17.17;;;7.32;;
41255;SDS011;26989;45.524;10.938;2024-01-11T05:56:09;12.48;;;6.63;;
41255;SDS011;26989;45.524;10.938;2024-01-11T05:58:37;16.23;;;8.00;;
41255;SDS011;26989;45.524;10.938;2024-01-11T06:01:05;19.98;;;9.00;;
41255;SDS011;26989;45.524;10.938;2024-01-11T06:03:32;22.23;;;9.15;;
41255;SDS011;26989;45.524;10.938;2024-01-11T06:06:02;17.70;;;8.00;;
41255;SDS011;26989;45.524;10.938;2024-01-11T06:08:30;18.42;;;8.43;;
41255;SDS011;26989;45.524;10.938;2024-01-11T06:10:57;19.15;;;9.23;;
41255;SDS011;26989;45.524;10.938;2024-01-11T06:13:25;16.40;;;8.57;;
41255;SDS011;26989;45.524;10.938;2024-01-11T06:15:52;19.33;;;8.48;;
41255;SDS011;26989;45.524;10.938;2024-01-11T06:18:19;17.48;;;7.97;;
41255;SDS011;26989;45.524;10.938;2024-01-11T06:20:46;19.83;;;9.45;;
41255;SDS011;26989;45.524;10.938;2024-01-11T06:23:14;22.20;;;10.27;;
41255;SDS011;26989;45.524;10.938;2024-01-11T06:25:43;23.92;;;10.57;;
41255;SDS011;26989;45.524;10.938;2024-01-11T06:28:12;21.80;;;10.05;;
41255;SDS011;26989;45.524;10.938;2024-01-11T06:30:39;116.32;;;43.78;;
41255;SDS011;26989;45.524;10.938;2024-01-11T06:33:06;123.00;;;50.40;;
41255;SDS011;26989;45.524;10.938;2024-01-11T06:35:34;70.55;;;30.55;;
41255;SDS011;26989;45.524;10.938;2024-01-11T06:38:01;30.70;;;15.02;;
41255;SDS011;26989;45.524;10.938;2024-01-11T06:40:27;29.50;;;13.13;;
41255;SDS011;26989;45.524;10.938;2024-01-11T06:42:54;20.88;;;10.25;;
41255;SDS011;26989;45.524;10.938;2024-01-11T06:45:21;26.50;;;12.90;;
41255;SDS011;26989;45.524;10.938;2024-01-11T06:47:48;18.70;;;9.70;;
41255;SDS011;26989;45.524;10.938;2024-01-11T06:50:16;17.67;;;8.80;;
41255;SDS011;26989;45.524;10.938;2024-01-11T06:52:43;18.15;;;8.25;;
41255;SDS011;26989;45.524;10.938;2024-01-11T06:55:09;31.90;;;13.23;;
41255;SDS011;26989;45.524;10.938;2024-01-11T06:57:37;27.02;;;13.50;;
41255;SDS011;26989;45.524;10.938;2024-01-11T07:00:04;16.05;;;6.70;;
41255;SDS011;26989;45.524;10.938;2024-01-11T07:02:34;16.95;;;7.93;;
41255;SDS011;26989;45.524;10.938;2024-01-11T07:05:01;18.17;;;8.20;;
41255;SDS011;26989;45.524;10.938;2024-01-11T07:07:29;18.40;;;8.07;;
41255;SDS011;26989;45.524;10.938;2024-01-11T07:09:56;22.90;;;9.73;;
41255;SDS011;26989;45.524;10.938;2024-01-11T07:12:23;18.65;;;10.15;;
41255;SDS011;26989;45.524;10.938;2024-01-11T07:14:50;19.05;;;9.13;;
41255;SDS011;26989;45.524;10.938;2024-01-11T07:17:18;21.38;;;8.20;;
41255;SDS011;26989;45.524;10.938;2024-01-11T07:19:45;18.05;;;8.52;;
41255;SDS011;26989;45.524;10.938;2024-01-11T07:22:13;23.10;;;9.23;;
41255;SDS011;26989;45.524;10.938;2024-01-11T07:24:39;16.95;;;8.60;;
41255;SDS011;26989;45.524;10.938;2024-01-11T07:27:06;18.27;;;9.07;;
41255;SDS011;26989;45.524;10.938;2024-01-11T07:29:34;15.63;;;8.13;;
41255;SDS011;26989;45.524;10.938;2024-01-11T07:32:01;31.92;;;14.00;;
41255;SDS011;26989;45.524;10.938;2024-01-11T07:34:30;26.52;;;11.63;;
41255;SDS011;26989;45.524;10.938;2024-01-11T07:36:58;22.98;;;10.45;;
41255;SDS011;26989;45.524;10.938;2024-01-11T07:39:25;35.22;;;16.60;;
41255;SDS011;26989;45.524;10.938;2024-01-11T07:41:52;31.27;;;14.93;;
41255;SDS011;26989;45.524;10.938;2024-01-11T07:44:19;33.90;;;14.40;;
41255;SDS011;26989;45.524;10.938;2024-01-11T07:46:47;24.80;;;11.27;;
41255;SDS011;26989;45.524;10.938;2024-01-11T07:49:20;21.48;;;9.82;;
41255;SDS011;26989;45.524;10.938;2024-01-11T07:51:47;35.63;;;16.90;;
41255;SDS011;26989;45.524;10.938;2024-01-11T07:54:14;52.17;;;20.67;;
41255;SDS011;26989;45.524;10.938;2024-01-11T07:56:41;33.95;;;14.88;;
41255;SDS011;26989;45.524;10.938;2024-01-11T07:59:09;19.15;;;9.70;;
41255;SDS011;26989;45.524;10.938;2024-01-11T08:01:41;27.02;;;10.45;;
41255;SDS011;26989;45.524;10.938;2024-01-11T08:04:08;25.92;;;11.60;;
41255;SDS011;26989;45.524;10.938;2024-01-11T08:06:35;25.95;;;11.70;;
41255;SDS011;26989;45.524;10.938;2024-01-11T08:09:02;22.90;;;10.82;;
41255;SDS011;26989;45.524;10.938;2024-01-11T08:11:31;27.00;;;13.10;;
41255;SDS011;26989;45.524;10.938;2024-01-11T08:14:02;81.33;;;35.73;;
41255;SDS011;26989;45.524;10.938;2024-01-11T08:16:32;49.08;;;23.98;;
41255;SDS011;26989;45.524;10.938;2024-01-11T08:18:59;36.35;;;16.92;;
41255;SDS011;26989;45.524;10.938;2024-01-11T08:21:27;34.88;;;17.38;;
41255;SDS011;26989;45.524;10.938;2024-01-11T08:23:55;34.30;;;15.82;;
41255;SDS011;26989;45.524;10.938;2024-01-11T08:26:28;31.67;;;13.32;;
41255;SDS011;26989;45.524;10.938;2024-01-11T08:28:56;28.73;;;12.32;;
41255;SDS011;26989;45.524;10.938;2024-01-11T08:31:23;29.77;;;13.48;;
41255;SDS011;26989;45.524;10.938;2024-01-11T08:33:51;30.17;;;14.50;;
41255;SDS011;26989;45.524;10.938;2024-01-11T08:36:18;28.77;;;14.63;;
41255;SDS011;26989;45.524;10.938;2024-01-11T08:38:45;32.20;;;12.35;;
41255;SDS011;26989;45.524;10.938;2024-01-11T08:41:12;40.38;;;19.20;;
41255;SDS011;26989;45.524;10.938;2024-01-11T08:43:39;36.10;;;19.27;;
41255;SDS011;26989;45.524;10.938;2024-01-11T08:46:06;36.83;;;19.73;;
41255;SDS011;26989;45.524;10.938;2024-01-11T08:48:33;37.95;;;17.65;;
41255;SDS011;26989;45.524;10.938;2024-01-11T08:51:00;28.27;;;14.25;;
41255;SDS011;26989;45.524;10.938;2024-01-11T08:53:27;33.67;;;15.90;;
41255;SDS011;26989;45.524;10.938;2024-01-11T08:55:55;29.67;;;15.82;;
41255;SDS011;26989;45.524;10.938;2024-01-11T08:58:22;28.90;;;14.63;;
41255;SDS011;26989;45.524;10.938;2024-01-11T09:00:49;25.08;;;12.38;;
41255;SDS011;26989;45.524;10.938;2024-01-11T09:03:16;22.95;;;11.88;;
41255;SDS011;26989;45.524;10.938;2024-01-11T09:05:44;28.42;;;11.88;;
41255;SDS011;26989;45.524;10.938;2024-01-11T09:08:11;25.00;;;12.55;;
41255;SDS011;26989;45.524;10.938;2024-01-11T09:10:38;28.92;;;13.65;;
41255;SDS011;26989;45.524;10.938;2024-01-11T09:13:05;32.78;;;14.23;;
41255;SDS011;26989;45.524;10.938;2024-01-11T09:15:32;26.67;;;14.63;;
41255;SDS011;26989;45.524;10.938;2024-01-11T09:17:59;28.40;;;14.68;;
41255;SDS011;26989;45.524;10.938;2024-01-11T09:20:27;26.80;;;13.32;;
41255;SDS011;26989;45.524;10.938;2024-01-11T09:22:54;27.05;;;14.32;;
41255;SDS011;26989;45.524;10.938;2024-01-11T09:25:21;24.90;;;12.70;;
41255;SDS011;26989;45.524;10.938;2024-01-11T09:27:48;27.80;;;14.02;;
41255;SDS011;26989;45.524;10.938;2024-01-11T09:30:16;29.95;;;13.82;;
41255;SDS011;26989;45.524;10.938;2024-01-11T09:32:43;28.50;;;14.40;;
41255;SDS011;26989;45.524;10.938;2024-01-11T09:35:10;30.67;;;14.65;;
41255;SDS011;26989;45.524;10.938;2024-01-11T09:37:41;29.27;;;14.68;;
41255;SDS011;26989;45.524;10.938;2024-01-11T09:40:09;31.95;;;16.35;;
41255;SDS011;26989;45.524;10.938;2024-01-11T09:42:37;29.95;;;15.20;;
41255;SDS011;26989;45.524;10.938;2024-01-11T09:45:08;32.33;;;16.20;;
41255;SDS011;26989;45.524;10.938;2024-01-11T09:47:38;34.78;;;16.38;;
41255;SDS011;26989;45.524;10.938;2024-01-11T09:50:06;30.70;;;15.52;;
41255;SDS011;26989;45.524;10.938;2024-01-11T09:52:34;27.48;;;13.95;;
41255;SDS011;26989;45.524;10.938;2024-01-11T09:55:03;32.33;;;16.02;;
41255;SDS011;26989;45.524;10.938;2024-01-11T09:57:31;34.83;;;16.30;;
41255;SDS011;26989;45.524;10.938;2024-01-11T09:59:59;28.10;;;14.07;;
41255;SDS011;26989;45.524;10.938;2024-01-11T10:02:30;32.22;;;15.73;;
41255;SDS011;26989;45.524;10.938;2024-01-11T10:04:57;30.38;;;15.00;;
41255;SDS011;26989;45.524;10.938;2024-01-11T10:07:24;30.00;;;14.38;;
41255;SDS011;26989;45.524;10.938;2024-01-11T10:09:51;28.83;;;14.38;;
41255;SDS011;26989;45.524;10.938;2024-01-11T10:12:22;25.83;;;13.98;;
41255;SDS011;26989;45.524;10.938;2024-01-11T10:17:18;30.90;;;14.10;;
41255;SDS011;26989;45.524;10.938;2024-01-11T10:19:50;29.92;;;13.85;;
41255;SDS011;26989;45.524;10.938;2024-01-11T10:22:19;29.45;;;13.43;;
41255;SDS011;26989;45.524;10.938;2024-01-11T10:24:50;28.85;;;14.00;;
41255;SDS011;26989;45.524;10.938;2024-01-11T10:27:17;29.23;;;13.50;;
41255;SDS011;26989;45.524;10.938;2024-01-11T10:29:44;24.73;;;12.30;;
41255;SDS011;26989;45.524;10.938;2024-01-11T10:32:12;31.23;;;13.80;;
41255;SDS011;26989;45.524;10.938;2024-01-11T10:34:39;29.80;;;13.35;;
41255;SDS011;26989;45.524;10.938;2024-01-11T10:37:07;30.83;;;13.80;;
41255;SDS011;26989;45.524;10.938;2024-01-11T10:39:36;30.13;;;13.88;;
41255;SDS011;26989;45.524;10.938;2024-01-11T10:42:06;26.08;;;13.25;;
41255;SDS011;26989;45.524;10.938;2024-01-11T10:44:34;23.20;;;12.63;;
41255;SDS011;26989;45.524;10.938;2024-01-11T10:47:04;25.73;;;12.30;;
41255;SDS011;26989;45.524;10.938;2024-01-11T10:49:36;27.70;;;13.07;;
41255;SDS011;26989;45.524;10.938;2024-01-11T10:52:07;22.75;;;12.85;;
41255;SDS011;26989;45.524;10.938;2024-01-11T10:54:38;28.92;;;14.50;;
41255;SDS011;26989;45.524;10.938;2024-01-11T10:57:06;34.15;;;14.88;;
41255;SDS011;26989;45.524;10.938;2024-01-11T10:59:34;27.50;;;14.13;;
41255;SDS011;26989;45.524;10.938;2024-01-11T11:02:04;25.33;;;13.32;;
41255;SDS011;26989;45.524;10.938;2024-01-11T11:04:38;25.33;;;13.20;;
41255;SDS011;26989;45.524;10.938;2024-01-11T11:07:08;26.60;;;13.80;;
41255;SDS011;26989;45.524;10.938;2024-01-11T11:09:37;31.88;;;14.63;;
41255;SDS011;26989;45.524;10.938;2024-01-11T11:14:37;28.60;;;13.30;;
41255;SDS011;26989;45.524;10.938;2024-01-11T11:17:05;26.30;;;14.00;;
41255;SDS011;26989;45.524;10.938;2024-01-11T11:19:32;25.80;;;12.38;;
41255;SDS011;26989;45.524;10.938;2024-01-11T11:21:59;27.58;;;12.88;;
41255;SDS011;26989;45.524;10.938;2024-01-11T11:24:33;30.65;;;14.27;;
41255;SDS011;26989;45.524;10.938;2024-01-11T11:27:01;31.23;;;14.85;;
41255;SDS011;26989;45.524;10.938;2024-01-11T11:29:29;27.92;;;13.68;;
41255;SDS011;26989;45.524;10.938;2024-01-11T11:31:56;30.52;;;14.63;;
41255;SDS011;26989;45.524;10.938;2024-01-11T11:34:39;26.98;;;13.57;;
41255;SDS011;26989;45.524;10.938;2024-01-11T11:37:08;29.23;;;14.77;;
41255;SDS011;26989;45.524;10.938;2024-01-11T11:39:36;25.05;;;13.25;;
41255;SDS011;26989;45.524;10.938;2024-01-11T11:42:03;26.08;;;14.75;;
41255;SDS011;26989;45.524;10.938;2024-01-11T11:44:32;27.52;;;15.70;;
41255;SDS011;26989;45.524;10.938;2024-01-11T11:47:18;26.65;;;14.15;;
41255;SDS011;26989;45.524;10.938;2024-01-11T11:50:08;27.50;;;14.85;;
41255;SDS011;26989;45.524;10.938;2024-01-11T11:52:37;27.95;;;13.55;;
41255;SDS011;26989;45.524;10.938;2024-01-11T11:55:05;24.80;;;12.90;;
41255;SDS011;26989;45.524;10.938;2024-01-11T11:57:34;28.35;;;14.38;;
41255;SDS011;26989;45.524;10.938;2024-01-11T12:00:02;27.23;;;13.68;;
41255;SDS011;26989;45.524;10.938;2024-01-11T12:02:32;28.48;;;14.75;;
41255;SDS011;26989;45.524;10.938;2024-01-11T12:05:02;24.60;;;12.20;;
41255;SDS011;26989;45.524;10.938;2024-01-11T12:07:33;22.90;;;12.05;;
41255;SDS011;26989;45.524;10.938;2024-01-11T12:10:00;26.40;;;13.90;;
41255;SDS011;26989;45.524;10.938;2024-01-11T12:12:27;23.98;;;12.25;;
41255;SDS011;26989;45.524;10.938;2024-01-11T12:14:55;26.02;;;12.15;;
41255;SDS011;26989;45.524;10.938;2024-01-11T12:17:25;26.15;;;13.07;;
41255;SDS011;26989;45.524;10.938;2024-01-11T12:19:53;20.75;;;12.02;;
41255;SDS011;26989;45.524;10.938;2024-01-11T12:22:22;23.00;;;11.45;;
41255;SDS011;26989;45.524;10.938;2024-01-11T12:24:49;19.40;;;9.20;;
41255;SDS011;26989;45.524;10.938;2024-01-11T12:27:17;25.83;;;11.45;;
41255;SDS011;26989;45.524;10.938;2024-01-11T12:29:45;19.83;;;10.73;;
41255;SDS011;26989;45.524;10.938;2024-01-11T12:32:24;22.50;;;10.27;;
41255;SDS011;26989;45.524;10.938;2024-01-11T12:34:51;23.27;;;9.23;;
41255;SDS011;26989;45.524;10.938;2024-01-11T12:37:19;17.45;;;8.57;;
41255;SDS011;26989;45.524;10.938;2024-01-11T12:39:47;16.42;;;8.93;;
41255;SDS011;26989;45.524;10.938;2024-01-11T12:42:14;20.80;;;9.48;;
41255;SDS011;26989;45.524;10.938;2024-01-11T12:44:41;17.02;;;9.55;;
41255;SDS011;26989;45.524;10.938;2024-01-11T12:47:09;16.73;;;9.73;;
41255;SDS011;26989;45.524;10.938;2024-01-11T12:49:36;15.85;;;9.13;;
41255;SDS011;26989;45.524;10.938;2024-01-11T12:52:03;17.90;;;8.98;;
41255;SDS011;26989;45.524;10.938;2024-01-11T12:54:32;18.45;;;9.15;;
41255;SDS011;26989;45.524;10.938;2024-01-11T12:57:00;17.48;;;8.77;;
41255;SDS011;26989;45.524;10.938;2024-01-11T12:59:28;18.60;;;8.73;;
41255;SDS011;26989;45.524;10.938;2024-01-11T13:01:55;18.83;;;8.63;;
41255;SDS011;26989;45.524;10.938;2024-01-11T13:04:23;16.48;;;8.38;;
41255;SDS011;26989;45.524;10.938;2024-01-11T13:06:50;19.23;;;9.32;;
41255;SDS011;26989;45.524;10.938;2024-01-11T13:09:17;16.33;;;9.18;;
41255;SDS011;26989;45.524;10.938;2024-01-11T13:11:47;16.70;;;9.30;;
41255;SDS011;26989;45.524;10.938;2024-01-11T13:14:15;16.88;;;9.77;;
41255;SDS011;26989;45.524;10.938;2024-01-11T13:16:45;16.60;;;8.90;;
41255;SDS011;26989;45.524;10.938;2024-01-11T13:19:14;17.80;;;9.02;;
41255;SDS011;26989;45.524;10.938;2024-01-11T13:21:52;21.10;;;9.63;;
41255;SDS011;26989;45.524;10.938;2024-01-11T13:24:19;14.52;;;9.10;;
41255;SDS011;26989;45.524;10.938;2024-01-11T13:26:46;15.95;;;8.43;;
41255;SDS011;26989;45.524;10.938;2024-01-11T13:29:13;17.35;;;9.38;;
41255;SDS011;26989;45.524;10.938;2024-01-11T13:31:40;16.20;;;9.57;;
41255;SDS011;26989;45.524;10.938;2024-01-11T13:34:07;19.30;;;9.43;;
41255;SDS011;26989;45.524;10.938;2024-01-11T13:36:34;18.67;;;8.95;;
41255;SDS011;26989;45.524;10.938;2024-01-11T13:39:01;18.20;;;9.23;;
41255;SDS011;26989;45.524;10.938;2024-01-11T13:41:29;23.70;;;9.18;;
41255;SDS011;26989;45.524;10.938;2024-01-11T13:43:56;20.30;;;9.20;;
41255;SDS011;26989;45.524;10.938;2024-01-11T13:46:23;21.92;;;9.85;;
41255;SDS011;26989;45.524;10.938;2024-01-11T13:48:50;18.33;;;9.55;;
41255;SDS011;26989;45.524;10.938;2024-01-11T13:51:18;16.13;;;8.90;;
41255;SDS011;26989;45.524;10.938;2024-01-11T13:53:45;19.02;;;9.20;;
41255;SDS011;26989;45.524;10.938;2024-01-11T13:56:13;17.25;;;8.80;;
41255;SDS011;26989;45.524;10.938;2024-01-11T13:58:40;15.40;;;8.18;;
41255;SDS011;26989;45.524;10.938;2024-01-11T14:01:07;17.15;;;8.70;;
41255;SDS011;26989;45.524;10.938;2024-01-11T14:03:34;12.57;;;7.45;;
41255;SDS011;26989;45.524;10.938;2024-01-11T14:06:01;14.02;;;7.80;;
41255;SDS011;26989;45.524;10.938;2024-01-11T14:08:29;14.30;;;7.13;;
41255;SDS011;26989;45.524;10.938;2024-01-11T14:10:56;14.75;;;7.82;;
41255;SDS011;26989;45.524;10.938;2024-01-11T14:13:23;19.55;;;7.93;;
41255;SDS011;26989;45.524;10.938;2024-01-11T14:15:50;17.15;;;8.43;;
41255;SDS011;26989;45.524;10.938;2024-01-11T14:18:17;14.05;;;7.57;;
41255;SDS011;26989;45.524;10.938;2024-01-11T14:20:45;14.02;;;8.10;;
41255;SDS011;26989;45.524;10.938;2024-01-11T14:23:12;14.65;;;7.82;;